Time;durP1;ratioP1;P1;durP2;ratioP2;P2;SDS_P1;SDS_P2;PMS_P1;PMS_P2;Temp;Humidity;BMP_temperature;BMP_pressure;BME280_temperature;BME280_humidity;BME280_pressure;Samples;Min_cycle;Max_cycle;Signal;HPM_P1;HPM_P2
2022/04/14 00:01:56;;;;;;;9.77;4.45;;;13.50;99.90;;;;;;5058734;28;20021;-72
2022/04/14 00:04:22;;;;;;;6.15;3.50;;;13.40;99.90;;;;;;5064688;28;20112;-72
2022/04/14 00:06:47;;;;;;;7.25;3.33;;;13.40;99.90;;;;;;5044146;28;20029;-72
2022/04/14 00:09:18;;;;;;;5.63;3.17;;;13.40;99.90;;;;;;5044789;28;20040;-72
2022/04/14 00:11:44;;;;;;;6.05;3.42;;;13.40;99.90;;;;;;5054240;28;20071;-71
2022/04/14 00:14:09;;;;;;;8.38;3.65;;;13.30;99.90;;;;;;5043569;28;20029;-70
2022/04/14 00:16:35;;;;;;;11.88;3.00;;;13.30;99.90;;;;;;5043767;28;20091;-70
2022/04/14 00:19:04;;;;;;;5.05;2.78;;;13.30;99.90;;;;;;5048770;28;20029;-73
2022/04/14 00:21:30;;;;;;;6.35;3.55;;;13.30;99.90;;;;;;5063968;28;20060;-71
2022/04/14 00:23:56;;;;;;;4.45;2.72;;;13.30;99.90;;;;;;5064184;28;20029;-71
2022/04/14 00:26:22;;;;;;;5.55;3.22;;;13.20;99.90;;;;;;5046210;28;20450;-72
2022/04/14 00:28:48;;;;;;;7.22;3.03;;;13.20;99.90;;;;;;5063243;28;20091;-73
2022/04/14 00:31:13;;;;;;;4.65;2.65;;;13.20;99.90;;;;;;5064134;28;20033;-71
2022/04/14 00:33:39;;;;;;;12.30;3.15;;;13.10;99.90;;;;;;5064458;28;20033;-71
2022/04/14 00:36:12;;;;;;;4.40;2.40;;;13.10;99.90;;;;;;5063670;28;20024;-72
2022/04/14 00:38:39;;;;;;;6.03;2.30;;;13.10;99.90;;;;;;5063639;28;20037;-73
2022/04/14 00:41:05;;;;;;;4.97;2.42;;;13.00;99.90;;;;;;5064101;28;20055;-72
2022/04/14 00:43:39;;;;;;;4.32;2.47;;;13.00;99.90;;;;;;5046012;28;20059;-72
2022/04/14 00:46:06;;;;;;;4.90;2.42;;;13.00;99.90;;;;;;5038801;28;20470;-72
2022/04/14 00:48:33;;;;;;;5.22;2.50;;;13.00;99.90;;;;;;5043344;28;20032;-72
2022/04/14 00:51:00;;;;;;;5.75;2.17;;;13.00;99.90;;;;;;5044250;28;20049;-72
2022/04/14 00:53:26;;;;;;;4.20;2.63;;;12.90;99.90;;;;;;5043822;28;20041;-72
2022/04/14 00:55:52;;;;;;;4.50;2.75;;;12.90;99.90;;;;;;5043826;28;20037;-73
2022/04/14 00:58:18;;;;;;;3.35;2.20;;;12.90;99.90;;;;;;5043619;28;20176;-72
2022/04/14 01:00:44;;;;;;;4.13;2.33;;;12.90;99.90;;;;;;5047686;28;20091;-71
2022/04/14 01:03:10;;;;;;;5.75;2.70;;;12.90;99.90;;;;;;5047129;28;20029;-72
2022/04/14 01:05:37;;;;;;;9.15;3.03;;;12.90;99.90;;;;;;5046472;28;20059;-72
2022/04/14 01:08:05;;;;;;;4.18;2.50;;;12.90;99.90;;;;;;5065589;28;20040;-72
2022/04/14 01:10:32;;;;;;;4.15;2.30;;;12.90;99.90;;;;;;5048659;28;20033;-69
2022/04/14 01:12:57;;;;;;;5.10;2.50;;;12.90;99.90;;;;;;5049530;28;20045;-69
2022/04/14 01:15:23;;;;;;;12.75;3.17;;;12.80;99.90;;;;;;5067122;28;20043;-69
2022/04/14 01:17:48;;;;;;;4.65;2.28;;;12.80;99.90;;;;;;5046551;28;20095;-69
2022/04/14 01:20:14;;;;;;;3.88;2.50;;;12.80;99.90;;;;;;5046403;28;20053;-71
2022/04/14 01:22:56;;;;;;;5.30;2.40;;;12.80;99.90;;;;;;5047184;28;20105;-70
2022/04/14 01:25:23;;;;;;;6.07;2.08;;;12.80;99.90;;;;;;5063208;28;20175;-70
2022/04/14 01:27:50;;;;;;;4.22;2.15;;;12.70;99.90;;;;;;5067305;28;20028;-72
2022/04/14 01:30:16;;;;;;;4.45;2.53;;;12.70;99.90;;;;;;5067224;28;20029;-70
2022/04/14 01:32:41;;;;;;;5.40;2.67;;;12.70;99.90;;;;;;5048668;28;20101;-71
2022/04/14 01:35:08;;;;;;;5.38;2.55;;;12.70;99.90;;;;;;5066725;28;20028;-72
2022/04/14 01:37:33;;;;;;;3.90;2.40;;;12.60;99.90;;;;;;5067019;28;20036;-71
2022/04/14 01:39:59;;;;;;;3.85;2.28;;;12.70;99.90;;;;;;5067113;28;20409;-71
2022/04/14 01:42:25;;;;;;;2.70;2.17;;;12.60;99.90;;;;;;5049478;28;20075;-70
2022/04/14 01:44:51;;;;;;;4.57;2.70;;;12.60;99.90;;;;;;5066286;28;20595;-71
2022/04/14 01:47:16;;;;;;;8.50;3.33;;;12.60;99.90;;;;;;5066902;28;20025;-72
2022/04/14 01:49:42;;;;;;;5.13;2.80;;;12.60;99.90;;;;;;5066661;28;20037;-71
2022/04/14 01:52:08;;;;;;;4.13;2.72;;;12.60;99.90;;;;;;5065855;28;20048;-71
2022/04/14 01:54:33;;;;;;;5.32;3.15;;;12.50;99.90;;;;;;5066269;28;20040;-70
2022/04/14 01:56:59;;;;;;;4.60;2.45;;;12.70;99.90;;;;;;5067186;28;20029;-72
2022/04/14 01:59:25;;;;;;;4.63;3.38;;;12.50;99.90;;;;;;5048633;28;20048;-71
2022/04/14 02:01:51;;;;;;;4.82;2.88;;;12.50;99.90;;;;;;5066451;28;20047;-72
2022/04/14 02:04:16;;;;;;;6.70;3.10;;;12.50;99.90;;;;;;5066492;28;20049;-71
2022/04/14 02:06:42;;;;;;;13.27;3.90;;;12.40;99.90;;;;;;5066406;28;20096;-71
2022/04/14 02:09:08;;;;;;;9.35;3.15;;;12.50;99.90;;;;;;5066288;28;20027;-72
2022/04/14 02:11:34;;;;;;;7.15;3.13;;;12.50;99.90;;;;;;5066234;28;20044;-72
2022/04/14 02:13:59;;;;;;;12.40;3.50;;;12.50;99.90;;;;;;5066293;28;20021;-72
2022/04/14 02:16:26;;;;;;;5.72;3.72;;;12.40;99.90;;;;;;5066017;28;20033;-72
2022/04/14 02:18:51;;;;;;;6.63;3.15;;;12.40;99.90;;;;;;5066130;28;20033;-72
2022/04/14 02:21:17;;;;;;;7.57;3.47;;;12.40;99.90;;;;;;5064991;28;20999;-71
2022/04/14 02:23:43;;;;;;;13.55;3.33;;;12.40;99.90;;;;;;5066343;28;20047;-72
2022/04/14 02:26:08;;;;;;;8.40;3.58;;;12.40;99.90;;;;;;5066371;28;20070;-72
2022/04/14 02:28:34;;;;;;;9.10;3.40;;;12.30;99.90;;;;;;5065602;28;20052;-73
2022/04/14 02:31:00;;;;;;;6.97;3.55;;;12.30;99.90;;;;;;5065911;28;20041;-72
2022/04/14 02:33:25;;;;;;;6.50;3.17;;;12.30;99.90;;;;;;5066536;28;20033;-73
2022/04/14 02:35:51;;;;;;;7.70;4.10;;;12.30;99.90;;;;;;5065466;28;20055;-73
2022/04/14 02:38:17;;;;;;;7.97;3.75;;;12.20;99.90;;;;;;5065767;28;20132;-72
2022/04/14 02:40:42;;;;;;;5.43;3.50;;;12.30;99.90;;;;;;5065802;28;20095;-72
2022/04/14 02:43:08;;;;;;;4.55;3.17;;;12.20;99.90;;;;;;5065228;28;20076;-72
2022/04/14 02:45:34;;;;;;;5.68;3.53;;;12.20;99.90;;;;;;5065840;28;20029;-72
2022/04/14 02:47:59;;;;;;;8.70;3.05;;;12.20;99.90;;;;;;5065936;28;20025;-73
2022/04/14 02:50:25;;;;;;;11.70;3.90;;;12.20;99.90;;;;;;5065194;28;20025;-73
2022/04/14 02:52:51;;;;;;;9.20;4.18;;;12.20;99.90;;;;;;5065835;28;20065;-71
2022/04/14 02:55:20;;;;;;;12.73;3.65;;;12.20;99.90;;;;;;5065703;28;20055;-73
2022/04/14 02:57:46;;;;;;;9.55;3.88;;;12.20;99.90;;;;;;5064663;28;20040;-73
2022/04/14 03:00:13;;;;;;;13.77;4.00;;;12.20;99.90;;;;;;5065659;28;20029;-72
2022/04/14 03:02:39;;;;;;;12.30;3.47;;;12.10;99.90;;;;;;5064681;28;20110;-71
2022/04/14 03:05:06;;;;;;;10.07;4.15;;;12.10;99.90;;;;;;5063770;28;20037;-72
2022/04/14 03:07:34;;;;;;;5.53;3.13;;;12.10;99.90;;;;;;5038588;28;20041;-73
2022/04/14 03:09:59;;;;;;;14.23;3.78;;;12.10;99.90;;;;;;5045155;28;20059;-73
2022/04/14 03:12:26;;;;;;;7.28;4.07;;;12.10;99.90;;;;;;5062198;28;20098;-74
2022/04/14 03:14:51;;;;;;;11.90;4.50;;;12.10;99.90;;;;;;5047156;28;20033;-73
2022/04/14 03:17:17;;;;;;;6.90;3.75;;;12.10;99.90;;;;;;5064813;28;20043;-73
2022/04/14 03:19:43;;;;;;;6.65;3.80;;;12.00;99.90;;;;;;5064818;28;20485;-73
2022/04/14 03:22:09;;;;;;;10.35;4.63;;;12.00;99.90;;;;;;5064495;28;20029;-73
2022/04/14 03:24:34;;;;;;;15.77;5.45;;;12.00;99.90;;;;;;5046440;28;20050;-72
2022/04/14 03:27:00;;;;;;;9.02;3.35;;;12.00;99.90;;;;;;5064829;28;20024;-74
2022/04/14 03:29:32;;;;;;;8.32;3.15;;;12.00;99.90;;;;;;5064977;28;20029;-72
2022/04/14 03:31:59;;;;;;;7.70;3.42;;;12.00;99.90;;;;;;5064817;28;20424;-73
2022/04/14 03:34:25;;;;;;;6.10;3.65;;;11.90;99.90;;;;;;5053969;28;20081;-73
2022/04/14 03:36:50;;;;;;;7.68;4.25;;;11.90;99.90;;;;;;5027326;28;20025;-71
2022/04/14 03:39:17;;;;;;;7.72;3.30;;;11.80;99.90;;;;;;5044560;28;20097;-71
2022/04/14 03:41:43;;;;;;;12.07;3.58;;;11.80;99.90;;;;;;5044755;28;20049;-72
2022/04/14 03:44:08;;;;;;;9.07;4.30;;;11.80;99.90;;;;;;5044526;28;20440;-72
2022/04/14 03:46:34;;;;;;;6.82;3.63;;;11.80;99.90;;;;;;5044121;28;20061;-73
2022/04/14 03:49:00;;;;;;;11.30;3.95;;;11.70;99.90;;;;;;5045040;28;20111;-71
2022/04/14 03:51:35;;;;;;;6.88;3.83;;;11.70;99.90;;;;;;5044940;28;20041;-72
2022/04/14 03:54:03;;;;;;;11.13;3.85;;;11.70;99.90;;;;;;5044509;28;20037;-74
2022/04/14 03:56:28;;;;;;;8.43;3.15;;;11.70;99.90;;;;;;5027122;28;20029;-72
2022/04/14 03:58:55;;;;;;;8.98;4.47;;;11.70;99.90;;;;;;5044330;28;20565;-71
2022/04/14 04:01:21;;;;;;;6.45;3.75;;;11.70;99.90;;;;;;5044635;28;20037;-71
2022/04/14 04:03:48;;;;;;;6.50;3.63;;;11.70;99.90;;;;;;5044134;28;20029;-70
2022/04/14 04:06:13;;;;;;;10.35;4.50;;;11.60;99.90;;;;;;5044053;28;20036;-70
2022/04/14 04:08:39;;;;;;;8.68;4.10;;;11.60;99.90;;;;;;5044168;28;20067;-71
2022/04/14 04:11:05;;;;;;;8.48;4.43;;;11.60;99.90;;;;;;5044349;28;20041;-71
2022/04/14 04:13:31;;;;;;;10.20;5.32;;;11.60;99.90;;;;;;5027087;28;20044;-71
2022/04/14 04:15:56;;;;;;;7.88;4.00;;;11.60;99.90;;;;;;5044397;28;20021;-71
2022/04/14 04:18:22;;;;;;;7.20;3.95;;;11.60;99.90;;;;;;5052611;28;20037;-73
2022/04/14 04:20:48;;;;;;;9.88;4.78;;;11.60;99.90;;;;;;5063464;28;20140;-73
2022/04/14 04:23:13;;;;;;;11.10;4.20;;;11.60;99.90;;;;;;5063872;28;20021;-72
2022/04/14 04:25:39;;;;;;;9.05;4.88;;;11.50;99.90;;;;;;5063026;28;20037;-72
2022/04/14 04:28:05;;;;;;;8.10;4.82;;;11.50;99.90;;;;;;5036110;28;20116;-72
2022/04/14 04:30:31;;;;;;;12.90;5.95;;;11.50;99.90;;;;;;5057743;28;20036;-72
2022/04/14 04:32:56;;;;;;;8.10;4.97;;;11.40;99.90;;;;;;5064026;28;20048;-73
2022/04/14 04:35:22;;;;;;;15.50;6.10;;;11.50;99.90;;;;;;5066805;28;20044;-73
2022/04/14 04:37:47;;;;;;;9.38;4.15;;;11.50;99.90;;;;;;5068324;28;20513;-72
2022/04/14 04:40:14;;;;;;;12.52;5.28;;;11.50;99.90;;;;;;5068241;28;20044;-73
2022/04/14 04:42:39;;;;;;;7.53;4.10;;;11.50;99.90;;;;;;5053132;28;20022;-73
2022/04/14 04:45:05;;;;;;;12.95;6.22;;;11.50;99.90;;;;;;5048211;28;20392;-72
2022/04/14 04:47:31;;;;;;;10.27;5.40;;;11.40;99.90;;;;;;5047951;28;20029;-72
2022/04/14 04:49:57;;;;;;;20.38;6.55;;;11.50;99.90;;;;;;5047682;28;20029;-74
2022/04/14 04:52:23;;;;;;;11.02;5.60;;;11.40;99.90;;;;;;5047522;28;20060;-73
2022/04/14 04:54:48;;;;;;;11.32;4.97;;;11.50;99.90;;;;;;5063043;28;20040;-73
2022/04/14 04:57:14;;;;;;;11.38;5.13;;;11.50;99.90;;;;;;5067475;28;20037;-73
2022/04/14 04:59:39;;;;;;;10.77;5.40;;;11.40;99.90;;;;;;5067897;28;20025;-72
2022/04/14 05:02:05;;;;;;;17.35;5.30;;;11.50;99.90;;;;;;5066924;28;20086;-73
2022/04/14 05:04:31;;;;;;;18.80;6.80;;;11.50;99.90;;;;;;5067180;28;20029;-73
2022/04/14 05:06:57;;;;;;;15.90;6.35;;;11.50;99.90;;;;;;5053979;28;20033;-73
2022/04/14 05:09:24;;;;;;;13.70;6.00;;;11.50;99.90;;;;;;5029504;28;20040;-72
2022/04/14 05:11:49;;;;;;;15.32;5.35;;;11.50;99.90;;;;;;5047408;28;20060;-72
2022/04/14 05:14:15;;;;;;;13.52;5.60;;;11.40;99.90;;;;;;5047499;28;20481;-72
2022/04/14 05:16:41;;;;;;;12.90;5.95;;;11.50;99.90;;;;;;5029538;28;20481;-72
2022/04/14 05:19:07;;;;;;;15.07;6.57;;;11.50;99.90;;;;;;5049941;28;20033;-72
2022/04/14 06:45:54;;;;;;;17.98;7.18;;;12.20;99.90;;;;;;5071508;23;20153;-70
2022/04/14 06:48:21;;;;;;;23.00;8.55;;;12.20;99.90;;;;;;5018973;28;20102;-72
2022/04/14 06:50:48;;;;;;;14.68;7.57;;;12.30;99.90;;;;;;5020007;28;20034;-71
2022/04/14 06:53:16;;;;;;;17.05;8.48;;;12.40;99.90;;;;;;5022151;28;20493;-71
2022/04/14 06:55:45;;;;;;;18.92;8.52;;;12.50;99.90;;;;;;5018537;28;20492;-71
2022/04/14 06:58:11;;;;;;;14.20;7.05;;;12.60;99.90;;;;;;5020238;28;20080;-71
2022/04/14 07:00:36;;;;;;;19.15;8.18;;;12.70;99.90;;;;;;5020190;28;20471;-71
2022/04/14 07:03:02;;;;;;;22.98;8.18;;;12.80;99.90;;;;;;5021330;28;20033;-72
2022/04/14 07:05:28;;;;;;;20.30;9.02;;;12.90;99.90;;;;;;5022604;28;20466;-71
2022/04/14 07:07:53;;;;;;;17.25;8.85;;;13.10;99.90;;;;;;5024222;28;20029;-72
2022/04/14 07:10:20;;;;;;;17.90;8.40;;;13.10;99.90;;;;;;5024369;28;20053;-71
2022/04/14 07:12:46;;;;;;;18.38;9.38;;;13.20;99.90;;;;;;5025334;28;20042;-73
2022/04/14 07:15:13;;;;;;;20.95;8.35;;;13.30;99.90;;;;;;5023486;28;20112;-70
2022/04/14 07:17:39;;;;;;;20.60;8.85;;;13.40;99.90;;;;;;5017189;28;20858;-72
2022/04/14 07:20:09;;;;;;;23.95;8.98;;;13.40;99.90;;;;;;5021827;28;20026;-72
2022/04/14 07:22:49;;;;;;;17.10;7.53;;;13.50;99.90;;;;;;5013014;28;20034;-73
2022/04/14 07:25:16;;;;;;;19.70;8.18;;;13.50;99.90;;;;;;5013173;28;20050;-72
2022/04/14 07:27:42;;;;;;;19.52;7.47;;;13.40;99.90;;;;;;5024791;28;20874;-71
2022/04/14 07:30:09;;;;;;;19.73;8.80;;;13.30;99.90;;;;;;5024210;28;20464;-72
2022/04/14 07:32:38;;;;;;;25.77;9.13;;;13.20;99.90;;;;;;5022542;28;20041;-73
2022/04/14 07:35:05;;;;;;;15.10;8.38;;;13.30;99.90;;;;;;5017130;28;20034;-73
2022/04/14 07:37:31;;;;;;;20.50;9.30;;;13.20;99.90;;;;;;5014285;28;20040;-73
2022/04/14 07:39:57;;;;;;;21.23;9.32;;;13.20;99.90;;;;;;5023857;28;20032;-72
2022/04/14 07:42:34;;;;;;;20.80;9.00;;;13.30;99.90;;;;;;5024196;28;20057;-73
2022/04/14 07:44:59;;;;;;;28.27;9.27;;;13.20;99.90;;;;;;5023657;28;20022;-72
2022/04/14 07:47:25;;;;;;;21.70;9.43;;;13.30;99.90;;;;;;5023968;28;20053;-73
2022/04/14 07:49:53;;;;;;;24.10;9.68;;;13.30;99.90;;;;;;5024326;28;20029;-72
2022/04/14 07:52:19;;;;;;;19.52;9.13;;;13.40;99.90;;;;;;5012029;28;20486;-72
2022/04/14 07:54:45;;;;;;;25.13;8.70;;;13.40;99.90;;;;;;5018170;28;20557;-73
2022/04/14 07:57:12;;;;;;;20.70;8.27;;;13.40;99.90;;;;;;4994633;28;20085;-72
2022/04/14 07:59:37;;;;;;;16.98;8.45;;;13.40;99.90;;;;;;5009934;28;20675;-73
2022/04/14 08:02:03;;;;;;;23.83;8.23;;;13.30;99.90;;;;;;5020993;28;20474;-73
2022/04/14 08:04:30;;;;;;;18.83;9.82;;;13.30;99.90;;;;;;5003340;28;20023;-71
2022/04/14 08:06:56;;;;;;;18.33;8.80;;;13.20;99.90;;;;;;5019022;28;20029;-70
2022/04/14 08:09:24;;;;;;;28.33;10.75;;;13.20;99.90;;;;;;5007773;28;20019;-74
2022/04/14 08:11:50;;;;;;;20.08;9.13;;;13.10;99.90;;;;;;5024606;28;20049;-74
2022/04/14 08:14:16;;;;;;;12.60;7.07;;;13.20;99.90;;;;;;5028174;28;20029;-73
2022/04/14 08:16:42;;;;;;;21.38;8.77;;;13.20;99.90;;;;;;5001279;28;20037;-73
2022/04/14 08:19:07;;;;;;;21.60;9.93;;;13.30;99.90;;;;;;5026815;28;20018;-73
2022/04/14 08:21:33;;;;;;;19.80;7.40;;;13.50;99.90;;;;;;5027677;28;20049;-73
2022/04/14 08:23:58;;;;;;;15.85;8.50;;;13.60;99.90;;;;;;5027721;28;20026;-73
2022/04/14 08:26:26;;;;;;;16.52;7.43;;;13.80;99.90;;;;;;5009452;28;20449;-74
2022/04/14 08:28:55;;;;;;;16.45;7.90;;;14.10;99.90;;;;;;5017449;28;20041;-74
2022/04/14 08:31:23;;;;;;;22.77;8.25;;;14.30;99.90;;;;;;5025444;28;20045;-73
2022/04/14 08:33:49;;;;;;;20.23;8.63;;;14.50;99.90;;;;;;5027967;28;20027;-75
2022/04/14 08:36:16;;;;;;;16.63;7.88;;;14.60;99.90;;;;;;5027614;28;20030;-74
2022/04/14 08:38:46;;;;;;;19.48;7.95;;;14.90;99.90;;;;;;5027065;28;20073;-74
2022/04/14 08:41:19;;;;;;;13.93;6.75;;;15.10;99.90;;;;;;5025856;28;20086;-73
2022/04/14 08:43:53;;;;;;;17.65;7.78;;;15.30;99.90;;;;;;5026576;28;20076;-74
2022/04/14 08:46:22;;;;;;;17.02;6.30;;;15.30;99.90;;;;;;5022427;28;20858;-74
2022/04/14 08:48:50;;;;;;;15.88;6.13;;;15.60;99.90;;;;;;5016629;28;20035;-74
2022/04/14 08:51:17;;;;;;;10.05;5.55;;;15.80;99.90;;;;;;4989668;28;20030;-75
2022/04/14 08:53:44;;;;;;;13.35;5.97;;;16.00;99.90;;;;;;5004826;28;20029;-73
2022/04/14 08:56:11;;;;;;;11.73;5.38;;;16.30;99.90;;;;;;5026374;28;20080;-73
2022/04/14 08:58:37;;;;;;;13.55;5.50;;;16.60;99.90;;;;;;5023895;28;20524;-72
2022/04/14 09:01:04;;;;;;;8.90;4.90;;;16.70;99.90;;;;;;5007306;28;20022;-72
2022/04/14 09:03:31;;;;;;;10.65;5.07;;;16.90;99.90;;;;;;5008928;28;20117;-72
2022/04/14 09:05:57;;;;;;;13.13;4.43;;;16.90;99.90;;;;;;5025163;28;20026;-72
2022/04/14 09:08:24;;;;;;;9.40;4.47;;;17.10;99.90;;;;;;5006907;28;20053;-73
2022/04/14 09:10:52;;;;;;;14.88;4.55;;;17.10;99.90;;;;;;5007564;28;20438;-72
2022/04/14 09:13:19;;;;;;;13.80;4.95;;;16.90;99.90;;;;;;5011656;28;20042;-73
2022/04/14 09:15:50;;;;;;;8.20;4.50;;;17.00;99.90;;;;;;5021911;28;20030;-74
2022/04/14 09:18:16;;;;;;;12.15;4.82;;;17.20;99.90;;;;;;5003862;28;20033;-75
2022/04/14 09:20:42;;;;;;;9.68;4.20;;;17.60;99.90;;;;;;5024592;28;20026;-72
2022/04/14 09:23:20;;;;;;;10.93;4.90;;;17.70;99.90;;;;;;5013651;28;20046;-72
2022/04/14 09:25:51;;;;;;;11.60;5.03;;;17.70;99.90;;;;;;5022395;28;20025;-71
2022/04/14 09:28:25;;;;;;;9.02;4.45;;;17.30;99.90;;;;;;5016953;28;20065;-73
2022/04/14 09:31:05;;;;;;;14.02;4.85;;;16.90;99.90;;;;;;5016268;28;20034;-72
2022/04/14 09:33:33;;;;;;;9.90;4.30;;;16.90;99.90;;;;;;5017412;28;20030;-72
2022/04/14 09:36:20;;;;;;;11.35;4.68;;;16.90;99.90;;;;;;5022993;28;20030;-73
2022/04/14 09:39:03;;;;;;;8.80;4.10;;;16.70;99.90;;;;;;5011236;28;20017;-74
2022/04/14 09:41:37;;;;;;;15.73;5.25;;;16.80;99.90;;;;;;5017948;28;20029;-73
2022/04/14 09:44:11;;;;;;;8.05;4.43;;;17.00;99.90;;;;;;5006642;28;20542;-74
2022/04/14 09:46:48;;;;;;;8.80;4.30;;;17.10;99.90;;;;;;5023934;28;20050;-72
2022/04/14 09:49:18;;;;;;;6.45;4.15;;;17.20;99.90;;;;;;5025985;28;20397;-73
2022/04/14 09:51:47;;;;;;;11.48;4.65;;;17.30;99.90;;;;;;5008022;28;20124;-72
2022/04/14 09:54:29;;;;;;;8.15;4.55;;;17.40;99.90;;;;;;5023068;28;20843;-72
2022/04/14 09:56:56;;;;;;;9.45;4.75;;;17.20;99.90;;;;;;5025427;28;20034;-74
2022/04/14 09:59:25;;;;;;;9.75;4.80;;;17.40;99.90;;;;;;5025859;28;20025;-74
2022/04/14 10:02:13;;;;;;;9.55;4.60;;;17.70;99.90;;;;;;5021775;28;20049;-73
2022/04/14 10:04:46;;;;;;;8.15;4.53;;;18.10;99.90;;;;;;5006102;28;20031;-74
2022/04/14 10:07:17;;;;;;;9.73;4.25;;;18.30;99.90;;;;;;5010368;28;20095;-73
2022/04/14 10:09:48;;;;;;;7.85;4.57;;;18.20;99.90;;;;;;5000005;28;20035;-72
2022/04/14 10:12:23;;;;;;;7.28;3.83;;;18.00;99.90;;;;;;5017360;28;20052;-73
2022/04/14 10:15:07;;;;;;;8.50;4.13;;;18.10;99.90;;;;;;5014516;28;20430;-74
2022/04/14 10:17:37;;;;;;;10.98;4.70;;;18.10;99.90;;;;;;5005973;28;20023;-74
2022/04/14 10:20:05;;;;;;;8.82;4.75;;;17.90;99.90;;;;;;5024534;28;20408;-73
2022/04/14 10:22:31;;;;;;;12.15;5.22;;;17.70;99.90;;;;;;5025788;28;20026;-74
2022/04/14 10:24:58;;;;;;;9.07;4.85;;;17.50;99.90;;;;;;5025514;28;20493;-71
2022/04/14 10:27:25;;;;;;;8.45;4.35;;;17.40;99.90;;;;;;5014601;28;20041;-74
2022/04/14 10:29:56;;;;;;;9.32;4.32;;;17.10;99.90;;;;;;5016711;28;20026;-74
2022/04/14 10:32:31;;;;;;;9.95;4.82;;;16.90;99.90;;;;;;5017297;28;20038;-74
2022/04/14 10:34:59;;;;;;;9.25;4.35;;;16.80;99.90;;;;;;5016629;28;20469;-74
2022/04/14 10:37:30;;;;;;;10.30;4.70;;;17.10;99.90;;;;;;5005756;28;20109;-74
2022/04/14 10:39:56;;;;;;;9.25;4.78;;;17.10;99.90;;;;;;5022025;28;20057;-75
2022/04/14 10:42:27;;;;;;;6.30;3.45;;;17.20;99.90;;;;;;5006189;28;20026;-75
2022/04/14 10:44:55;;;;;;;7.55;3.78;;;17.30;99.90;;;;;;5000123;28;20037;-75
2022/04/14 10:47:52;;;;;;;8.50;4.13;;;17.40;99.90;;;;;;5005209;28;20046;-74
2022/04/14 10:50:23;;;;;;;10.52;4.63;;;17.60;99.90;;;;;;4994854;28;20025;-76
2022/04/14 10:53:09;;;;;;;8.88;3.83;;;17.80;99.90;;;;;;5022161;28;20038;-75
2022/04/14 10:55:39;;;;;;;8.55;4.18;;;18.00;99.90;;;;;;5007841;28;20034;-75
2022/04/14 10:58:06;;;;;;;8.15;3.70;;;18.10;99.90;;;;;;5003919;28;20038;-74
2022/04/14 11:00:32;;;;;;;8.60;4.22;;;18.00;99.90;;;;;;4994875;28;20041;-75
2022/04/14 11:03:13;;;;;;;10.13;4.43;;;17.90;99.90;;;;;;5020162;28;20045;-76
2022/04/14 11:05:50;;;;;;;8.77;4.82;;;17.70;99.90;;;;;;5015075;28;20026;-74
2022/04/14 11:08:27;;;;;;;11.80;5.05;;;17.50;99.90;;;;;;5024591;28;20026;-74
2022/04/14 11:11:12;;;;;;;7.95;4.53;;;17.40;99.90;;;;;;5018536;28;20037;-75
2022/04/14 11:13:58;;;;;;;;;;;17.20;99.90;;;;;;5005474;28;20034;-74
2022/04/14 11:16:47;;;;;;;18.90;4.40;;;17.20;99.90;;;;;;5009595;28;19984;-75
2022/04/14 11:19:24;;;;;;;10.05;4.85;;;17.20;99.90;;;;;;5006362;28;20792;-74
2022/04/14 11:22:01;;;;;;;9.35;4.25;;;17.30;99.90;;;;;;5024627;28;20026;-74
2022/04/14 11:24:35;;;;;;;9.02;4.20;;;17.30;99.90;;;;;;5024529;28;20199;-75
2022/04/14 11:27:20;;;;;;;8.07;4.38;;;17.10;99.90;;;;;;5024306;28;20069;-71
2022/04/14 11:29:48;;;;;;;10.00;3.38;;;17.00;99.90;;;;;;5007147;28;20025;-74
2022/04/14 11:32:16;;;;;;;9.55;4.53;;;16.80;99.90;;;;;;5024473;28;20041;-72
2022/04/14 11:34:43;;;;;;;8.70;4.05;;;16.80;99.90;;;;;;5013148;28;20054;-74
2022/04/14 11:37:44;;;;;;;7.57;3.85;;;16.70;99.90;;;;;;5011678;28;20035;-73
2022/04/14 11:40:24;;;;;;;8.05;4.07;;;16.70;99.90;;;;;;5002383;28;20058;-73
2022/04/14 11:42:55;;;;;;;6.05;3.25;;;16.60;99.90;;;;;;5004260;28;20057;-73
2022/04/14 11:45:28;;;;;;;6.38;3.53;;;16.70;99.90;;;;;;5005068;28;20030;-74
2022/04/14 11:48:02;;;;;;;7.65;3.25;;;16.60;99.90;;;;;;5002818;28;20058;-71
2022/04/14 11:50:29;;;;;;;7.27;4.03;;;16.60;99.90;;;;;;4995465;28;20034;-74
2022/04/14 11:52:56;;;;;;;9.50;4.22;;;16.50;99.90;;;;;;5022498;28;20867;-73
2022/04/14 11:55:42;;;;;;;7.53;3.40;;;16.50;99.90;;;;;;5021186;28;20030;-75
2022/04/14 11:58:10;;;;;;;9.35;3.70;;;16.80;99.90;;;;;;5023537;28;20129;-73
2022/04/14 12:00:47;;;;;;;8.55;3.40;;;17.00;99.90;;;;;;5019698;28;20034;-72
2022/04/14 12:03:14;;;;;;;6.78;3.03;;;17.10;99.90;;;;;;5005678;28;20053;-72
2022/04/14 12:05:48;;;;;;;7.32;2.85;;;17.10;99.90;;;;;;5013288;28;20026;-74
2022/04/14 12:08:14;;;;;;;5.32;2.78;;;17.20;99.90;;;;;;5018120;28;20054;-72
2022/04/14 12:10:40;;;;;;;4.50;2.55;;;17.20;99.90;;;;;;5019366;28;20435;-75
2022/04/14 12:13:08;;;;;;;5.60;2.70;;;17.40;99.90;;;;;;5019304;28;20521;-76
2022/04/14 12:15:34;;;;;;;3.78;2.35;;;17.50;99.90;;;;;;4990843;28;20062;-75
2022/04/14 12:18:08;;;;;;;5.38;2.65;;;17.60;99.90;;;;;;4995002;28;20030;-73
2022/04/14 12:20:36;;;;;;;5.80;2.50;;;17.70;99.90;;;;;;5023686;28;20033;-72
2022/04/14 12:23:02;;;;;;;6.07;2.25;;;17.60;99.90;;;;;;5024101;28;20113;-74
2022/04/14 12:25:28;;;;;;;8.98;2.45;;;17.90;99.90;;;;;;5023341;28;20030;-73
2022/04/14 12:27:54;;;;;;;2.55;1.77;;;17.70;99.90;;;;;;5016836;28;20026;-73
2022/04/14 12:30:22;;;;;;;2.88;1.90;;;17.80;99.90;;;;;;5012852;28;20065;-74
2022/04/14 12:32:58;;;;;;;7.63;2.13;;;18.10;99.90;;;;;;5005971;28;20042;-72
2022/04/14 12:35:38;;;;;;;3.58;2.10;;;18.40;99.90;;;;;;5024201;28;20026;-74
2022/04/14 12:38:21;;;;;;;5.00;1.70;;;18.30;99.90;;;;;;5023471;28;20542;-73
2022/04/14 12:40:57;;;;;;;3.83;1.75;;;18.30;99.90;;;;;;5005450;28;20061;-73
2022/04/14 12:43:37;;;;;;;5.80;2.47;;;18.10;99.90;;;;;;5004369;28;20026;-72
2022/04/14 12:46:24;;;;;;;4.10;1.98;;;18.00;99.90;;;;;;5017644;28;20030;-71
2022/04/14 12:49:08;;;;;;;2.70;1.48;;;18.00;99.90;;;;;;5000039;28;20042;-72
2022/04/14 12:51:42;;;;;;;4.10;2.08;;;18.00;99.90;;;;;;4989589;28;20038;-72
2022/04/14 12:54:14;;;;;;;2.65;1.70;;;18.10;99.90;;;;;;5004063;28;20062;-74
2022/04/14 12:56:40;;;;;;;4.32;1.90;;;18.00;99.90;;;;;;5007528;28;20027;-71
2022/04/14 12:59:18;;;;;;;3.38;1.83;;;17.90;99.90;;;;;;5007274;28;20922;-72
2022/04/14 13:01:45;;;;;;;3.50;2.30;;;17.80;99.90;;;;;;4997372;28;20027;-72
2022/04/14 13:04:11;;;;;;;4.38;2.72;;;17.70;99.90;;;;;;4996368;28;20114;-73
2022/04/14 13:06:37;;;;;;;6.32;2.88;;;17.50;99.90;;;;;;4996416;28;20054;-72
2022/04/14 13:09:25;;;;;;;7.35;2.97;;;17.30;99.90;;;;;;4978798;28;20030;-74
2022/04/14 13:11:51;;;;;;;5.03;3.10;;;17.00;99.90;;;;;;4994859;28;20069;-74
2022/04/14 13:14:30;;;;;;;5.10;2.95;;;16.80;99.90;;;;;;4994465;28;20459;-72
2022/04/14 13:17:00;;;;;;;9.68;3.78;;;16.70;99.90;;;;;;4994339;28;20026;-71
2022/04/14 13:19:27;;;;;;;5.55;2.53;;;16.60;99.90;;;;;;4994770;28;20080;-73
2022/04/14 13:21:54;;;;;;;7.57;2.88;;;16.50;99.90;;;;;;4996178;28;20077;-73
2022/04/14 13:24:21;;;;;;;7.03;3.35;;;16.50;99.90;;;;;;4978592;28;20046;-73
2022/04/14 13:26:47;;;;;;;5.43;3.13;;;16.40;99.90;;;;;;4995374;28;20026;-74
2022/04/14 13:29:13;;;;;;;6.43;3.42;;;16.40;99.90;;;;;;4995659;28;20861;-73
2022/04/14 13:31:40;;;;;;;7.13;2.83;;;16.30;99.90;;;;;;4995382;28;20070;-71
2022/04/14 13:34:07;;;;;;;5.55;3.08;;;16.30;99.90;;;;;;4995369;28;20018;-72
2022/04/14 13:36:33;;;;;;;9.50;4.32;;;16.30;99.90;;;;;;4995330;28;20033;-72
2022/04/14 13:38:59;;;;;;;6.35;3.15;;;16.30;99.90;;;;;;4995481;28;20022;-72
2022/04/14 13:41:25;;;;;;;8.75;4.25;;;16.40;99.90;;;;;;4977600;28;20198;-72
2022/04/14 13:43:52;;;;;;;9.80;4.47;;;16.30;99.90;;;;;;4978474;28;20510;-71
2022/04/14 13:46:17;;;;;;;9.32;4.40;;;16.30;99.90;;;;;;4978746;28;20087;-73
2022/04/14 13:48:43;;;;;;;11.77;4.93;;;16.30;99.90;;;;;;5014567;28;20057;-71
2022/04/14 13:51:10;;;;;;;10.30;4.25;;;16.30;99.90;;;;;;4997416;28;20037;-71
2022/04/14 13:53:37;;;;;;;9.75;4.88;;;16.30;99.90;;;;;;5015058;28;20026;-71
2022/04/14 13:56:04;;;;;;;8.75;4.40;;;16.40;99.90;;;;;;5014670;28;20030;-72
2022/04/14 13:58:29;;;;;;;7.43;3.60;;;16.50;99.90;;;;;;4997204;28;20038;-72
2022/04/14 14:00:55;;;;;;;8.98;4.13;;;16.60;99.90;;;;;;5014634;28;20018;-72
2022/04/14 14:03:22;;;;;;;8.18;4.53;;;16.80;99.90;;;;;;5014705;28;20030;-70
2022/04/14 14:05:48;;;;;;;10.30;4.53;;;16.90;99.90;;;;;;5013919;28;20034;-72
2022/04/14 14:08:14;;;;;;;8.90;4.18;;;17.00;99.90;;;;;;5015070;28;20576;-69
2022/04/14 14:10:41;;;;;;;8.10;4.20;;;17.20;99.90;;;;;;5015765;28;20026;-71
2022/04/14 14:13:07;;;;;;;10.98;5.05;;;17.40;99.90;;;;;;4996376;28;20096;-73
2022/04/14 14:15:33;;;;;;;10.52;4.57;;;17.50;99.90;;;;;;5014479;28;20032;-72